Weather at Alameda Naval Air Station [CLOSED]

Public forecast

Using degrees Fahrenheit for public forecast. Weather courtesy of forecast.io.

Closest aviation weather report (METAR) to Alameda Naval Air Station

Closest report is Metropolitan Oakland International Airport, 6.3 nm (11.6 km) SE.

2024/05/29 09:53 (retrieved 8 minutes ago)

KOAK 290953Z 00000KT 10SM CLR 13/10 A3007 RMK AO2 SLP182 T01280100

Closest aviation forecast (TAF) to Alameda Naval Air Station

Closest forecast is Metropolitan Oakland International Airport, 6.3 nm (11.6 km) SE.

2024/05/29 06:39 (retrieved 3 hours ago)

TAF KOAK 290536Z 2906/3012 26005KT P6SM SKC FM291900 27013KT P6SM SKC FM300400 27004KT P6SM SKC